KBAF/BAF METAR and TAF weather

Enter ICAO airport designator
Station Type Date Time Source
KBAF METAR 2019/06/17 11:53 UTC NOAA

KBAF 171153Z 02007KT 10SM FEW028 OVC040 19/15 A2996 RMK AO2 SLP144 70057 T01890150 10189 20161 51013


Station Type Date Time Source
KBAF Decoded METAR 2019/06/17 11:53 UTC NOAA

WESTFIELD BARNES MUNICIPAL, MA, United States (KBAF) 42-10N 072-43W 83M
Jun 17, 2019 - 07:53 AM EDT / 2019.06.17 1153 UTC
Wind: from the NNE (020 degrees) at 8 MPH (7 KT):0
Visibility: 10 mile(s):0
Sky conditions: overcast
Temperature: 66.0 F (18.9 C)
Dew Point: 59.0 F (15.0 C)
Relative Humidity: 78%
Pressure (altimeter): 29.96 in. Hg (1014 hPa)
Pressure tendency: 0.04 inches (1.3 hPa) higher than three hours ago
ob: KBAF 171153Z 02007KT 10SM FEW028 OVC040 19/15 A2996 RMK AO2 SLP144 70057 T01890150 10189 20161 51013
cycle: 12

Station Type Date Time Source
KBAF TAF 2019/06/17 12:24 UTC NOAA

TAF KBAF 171123Z 1712/1812 36004KT P6SM BKN035
FM171700 VRB03KT P6SM BKN100
FM180000 23003KT P6SM OVC100
FM180600 00000KT P6SM VCSH BKN045
FM180800 00000KT 6SM BR VCSH OVC025
FM180900 00000KT 6SM BR VCSH OVC015

Example: see airport list